sensor_id;sensor_type;location;lat;lon;timestamp;P1;durP1;ratioP1;P2;durP2;ratioP2
19026;SDS011;9646;52.034;5.554;2024-01-16T00:00:18;4.28;;;1.10;;
19026;SDS011;9646;52.034;5.554;2024-01-16T00:02:45;4.00;;;1.20;;
19026;SDS011;9646;52.034;5.554;2024-01-16T00:05:12;4.78;;;1.42;;
19026;SDS011;9646;52.034;5.554;2024-01-16T00:07:39;3.13;;;1.13;;
19026;SDS011;9646;52.034;5.554;2024-01-16T00:10:07;4.60;;;1.38;;
19026;SDS011;9646;52.034;5.554;2024-01-16T00:12:35;5.15;;;1.38;;
19026;SDS011;9646;52.034;5.554;2024-01-16T00:15:02;4.50;;;1.70;;
19026;SDS011;9646;52.034;5.554;2024-01-16T00:17:30;6.10;;;1.45;;
19026;SDS011;9646;52.034;5.554;2024-01-16T00:19:58;5.28;;;1.30;;
19026;SDS011;9646;52.034;5.554;2024-01-16T00:22:25;2.95;;;0.80;;
19026;SDS011;9646;52.034;5.554;2024-01-16T00:24:52;4.82;;;1.30;;
19026;SDS011;9646;52.034;5.554;2024-01-16T00:27:19;3.47;;;1.00;;
19026;SDS011;9646;52.034;5.554;2024-01-16T00:29:48;4.05;;;1.10;;
19026;SDS011;9646;52.034;5.554;2024-01-16T00:32:15;7.78;;;1.02;;
19026;SDS011;9646;52.034;5.554;2024-01-16T00:34:43;3.90;;;1.33;;
19026;SDS011;9646;52.034;5.554;2024-01-16T00:37:10;6.95;;;1.25;;
19026;SDS011;9646;52.034;5.554;2024-01-16T00:39:37;4.25;;;1.02;;
19026;SDS011;9646;52.034;5.554;2024-01-16T00:42:04;5.65;;;1.10;;
19026;SDS011;9646;52.034;5.554;2024-01-16T00:44:31;3.13;;;0.90;;
19026;SDS011;9646;52.034;5.554;2024-01-16T00:47:01;4.78;;;1.40;;
19026;SDS011;9646;52.034;5.554;2024-01-16T00:49:30;2.40;;;0.90;;
19026;SDS011;9646;52.034;5.554;2024-01-16T00:51:57;4.78;;;1.00;;
19026;SDS011;9646;52.034;5.554;2024-01-16T00:54:24;3.42;;;1.20;;
19026;SDS011;9646;52.034;5.554;2024-01-16T00:56:51;5.35;;;1.10;;
19026;SDS011;9646;52.034;5.554;2024-01-16T00:59:20;5.45;;;0.90;;
19026;SDS011;9646;52.034;5.554;2024-01-16T01:01:48;5.13;;;1.38;;
19026;SDS011;9646;52.034;5.554;2024-01-16T01:04:16;5.97;;;0.98;;
19026;SDS011;9646;52.034;5.554;2024-01-16T01:06:43;3.97;;;1.20;;
19026;SDS011;9646;52.034;5.554;2024-01-16T01:09:10;3.85;;;1.10;;
19026;SDS011;9646;52.034;5.554;2024-01-16T01:11:37;4.47;;;1.50;;
19026;SDS011;9646;52.034;5.554;2024-01-16T01:14:05;3.80;;;1.38;;
19026;SDS011;9646;52.034;5.554;2024-01-16T01:16:32;4.80;;;1.30;;
19026;SDS011;9646;52.034;5.554;2024-01-16T01:18:59;5.18;;;1.42;;
19026;SDS011;9646;52.034;5.554;2024-01-16T01:21:27;5.57;;;1.23;;
19026;SDS011;9646;52.034;5.554;2024-01-16T01:23:54;4.90;;;1.45;;
19026;SDS011;9646;52.034;5.554;2024-01-16T01:26:21;6.25;;;1.60;;
19026;SDS011;9646;52.034;5.554;2024-01-16T01:28:48;3.33;;;1.10;;
19026;SDS011;9646;52.034;5.554;2024-01-16T01:31:15;6.10;;;1.20;;
19026;SDS011;9646;52.034;5.554;2024-01-16T01:33:42;5.28;;;1.50;;
19026;SDS011;9646;52.034;5.554;2024-01-16T01:36:09;2.75;;;1.05;;
19026;SDS011;9646;52.034;5.554;2024-01-16T01:38:38;5.10;;;1.20;;
19026;SDS011;9646;52.034;5.554;2024-01-16T01:41:05;1.30;;;0.70;;
19026;SDS011;9646;52.034;5.554;2024-01-16T01:43:32;3.25;;;0.85;;
19026;SDS011;9646;52.034;5.554;2024-01-16T01:46:06;3.55;;;1.48;;
19026;SDS011;9646;52.034;5.554;2024-01-16T01:48:35;4.47;;;1.00;;
19026;SDS011;9646;52.034;5.554;2024-01-16T01:51:03;5.78;;;1.30;;
19026;SDS011;9646;52.034;5.554;2024-01-16T01:53:30;3.75;;;1.40;;
19026;SDS011;9646;52.034;5.554;2024-01-16T01:55:59;3.53;;;1.23;;
19026;SDS011;9646;52.034;5.554;2024-01-16T01:58:26;5.10;;;1.42;;
19026;SDS011;9646;52.034;5.554;2024-01-16T02:00:53;6.40;;;1.73;;
19026;SDS011;9646;52.034;5.554;2024-01-16T02:03:20;4.50;;;1.60;;
19026;SDS011;9646;52.034;5.554;2024-01-16T02:05:48;5.03;;;1.48;;
19026;SDS011;9646;52.034;5.554;2024-01-16T02:08:16;4.88;;;1.63;;
19026;SDS011;9646;52.034;5.554;2024-01-16T02:10:43;4.20;;;1.50;;
19026;SDS011;9646;52.034;5.554;2024-01-16T02:13:14;6.28;;;1.65;;
19026;SDS011;9646;52.034;5.554;2024-01-16T02:15:43;7.15;;;1.80;;
19026;SDS011;9646;52.034;5.554;2024-01-16T02:18:10;5.60;;;1.67;;
19026;SDS011;9646;52.034;5.554;2024-01-16T02:20:37;4.45;;;1.60;;
19026;SDS011;9646;52.034;5.554;2024-01-16T02:23:05;6.00;;;1.83;;
19026;SDS011;9646;52.034;5.554;2024-01-16T02:25:33;4.63;;;1.40;;
19026;SDS011;9646;52.034;5.554;2024-01-16T02:28:00;4.30;;;1.60;;
19026;SDS011;9646;52.034;5.554;2024-01-16T02:30:28;2.50;;;1.13;;
19026;SDS011;9646;52.034;5.554;2024-01-16T02:32:55;3.20;;;1.33;;
19026;SDS011;9646;52.034;5.554;2024-01-16T02:35:22;3.67;;;1.30;;
19026;SDS011;9646;52.034;5.554;2024-01-16T02:37:49;3.25;;;0.85;;
19026;SDS011;9646;52.034;5.554;2024-01-16T02:40:16;5.40;;;1.08;;
19026;SDS011;9646;52.034;5.554;2024-01-16T02:42:44;3.80;;;1.05;;
19026;SDS011;9646;52.034;5.554;2024-01-16T02:45:11;5.43;;;0.90;;
19026;SDS011;9646;52.034;5.554;2024-01-16T02:47:39;5.68;;;1.23;;
19026;SDS011;9646;52.034;5.554;2024-01-16T02:50:06;3.28;;;0.98;;
19026;SDS011;9646;52.034;5.554;2024-01-16T02:52:34;3.75;;;0.80;;
19026;SDS011;9646;52.034;5.554;2024-01-16T02:55:02;4.80;;;1.50;;
19026;SDS011;9646;52.034;5.554;2024-01-16T02:57:29;1.95;;;0.73;;
19026;SDS011;9646;52.034;5.554;2024-01-16T02:59:58;1.80;;;0.77;;
19026;SDS011;9646;52.034;5.554;2024-01-16T03:02:25;2.75;;;1.10;;
19026;SDS011;9646;52.034;5.554;2024-01-16T03:04:52;2.60;;;0.90;;
19026;SDS011;9646;52.034;5.554;2024-01-16T03:07:19;2.88;;;1.15;;
19026;SDS011;9646;52.034;5.554;2024-01-16T03:09:48;1.08;;;0.75;;
19026;SDS011;9646;52.034;5.554;2024-01-16T03:12:15;3.72;;;0.82;;
19026;SDS011;9646;52.034;5.554;2024-01-16T03:14:42;5.85;;;1.10;;
19026;SDS011;9646;52.034;5.554;2024-01-16T03:17:11;2.78;;;0.90;;
19026;SDS011;9646;52.034;5.554;2024-01-16T03:19:38;4.07;;;0.80;;
19026;SDS011;9646;52.034;5.554;2024-01-16T03:22:05;1.27;;;0.73;;
19026;SDS011;9646;52.034;5.554;2024-01-16T03:24:32;3.10;;;1.13;;
19026;SDS011;9646;52.034;5.554;2024-01-16T03:26:59;2.38;;;0.80;;
19026;SDS011;9646;52.034;5.554;2024-01-16T03:29:26;4.00;;;1.10;;
19026;SDS011;9646;52.034;5.554;2024-01-16T03:31:53;2.75;;;0.70;;
19026;SDS011;9646;52.034;5.554;2024-01-16T03:34:23;1.77;;;0.70;;
19026;SDS011;9646;52.034;5.554;2024-01-16T03:36:50;4.05;;;1.25;;
19026;SDS011;9646;52.034;5.554;2024-01-16T03:39:17;1.92;;;0.98;;
19026;SDS011;9646;52.034;5.554;2024-01-16T03:41:44;2.97;;;0.70;;
19026;SDS011;9646;52.034;5.554;2024-01-16T03:44:11;2.38;;;0.82;;
19026;SDS011;9646;52.034;5.554;2024-01-16T03:46:38;3.45;;;0.90;;
19026;SDS011;9646;52.034;5.554;2024-01-16T03:49:05;2.08;;;0.70;;
19026;SDS011;9646;52.034;5.554;2024-01-16T03:51:34;3.13;;;0.85;;
19026;SDS011;9646;52.034;5.554;2024-01-16T03:54:01;4.47;;;0.90;;
19026;SDS011;9646;52.034;5.554;2024-01-16T03:56:29;3.28;;;0.70;;
19026;SDS011;9646;52.034;5.554;2024-01-16T03:58:56;4.03;;;1.00;;
19026;SDS011;9646;52.034;5.554;2024-01-16T04:01:29;2.65;;;0.70;;
19026;SDS011;9646;52.034;5.554;2024-01-16T04:03:56;2.08;;;0.80;;
19026;SDS011;9646;52.034;5.554;2024-01-16T04:06:24;1.98;;;0.75;;
19026;SDS011;9646;52.034;5.554;2024-01-16T04:08:52;4.38;;;1.25;;
19026;SDS011;9646;52.034;5.554;2024-01-16T04:11:19;4.25;;;1.10;;
19026;SDS011;9646;52.034;5.554;2024-01-16T04:13:46;3.60;;;0.90;;
19026;SDS011;9646;52.034;5.554;2024-01-16T04:16:15;1.27;;;0.52;;
19026;SDS011;9646;52.034;5.554;2024-01-16T04:18:42;3.50;;;0.75;;
19026;SDS011;9646;52.034;5.554;2024-01-16T04:21:10;1.92;;;0.63;;
19026;SDS011;9646;52.034;5.554;2024-01-16T04:23:37;5.75;;;1.10;;
19026;SDS011;9646;52.034;5.554;2024-01-16T04:26:05;2.65;;;0.80;;
19026;SDS011;9646;52.034;5.554;2024-01-16T04:28:33;2.80;;;1.00;;
19026;SDS011;9646;52.034;5.554;2024-01-16T04:31:02;3.47;;;0.90;;
19026;SDS011;9646;52.034;5.554;2024-01-16T04:33:29;2.00;;;0.70;;
19026;SDS011;9646;52.034;5.554;2024-01-16T04:35:56;3.13;;;0.90;;
19026;SDS011;9646;52.034;5.554;2024-01-16T04:38:23;4.30;;;1.35;;
19026;SDS011;9646;52.034;5.554;2024-01-16T04:40:50;2.20;;;0.95;;
19026;SDS011;9646;52.034;5.554;2024-01-16T04:43:19;1.60;;;1.08;;
19026;SDS011;9646;52.034;5.554;2024-01-16T04:45:46;4.97;;;1.30;;
19026;SDS011;9646;52.034;5.554;2024-01-16T04:48:13;2.65;;;1.23;;
19026;SDS011;9646;52.034;5.554;2024-01-16T04:50:40;4.80;;;2.45;;
19026;SDS011;9646;52.034;5.554;2024-01-16T04:53:07;5.70;;;2.08;;
19026;SDS011;9646;52.034;5.554;2024-01-16T04:55:34;3.20;;;0.85;;
19026;SDS011;9646;52.034;5.554;2024-01-16T04:58:01;2.85;;;0.90;;
19026;SDS011;9646;52.034;5.554;2024-01-16T05:00:30;4.55;;;0.90;;
19026;SDS011;9646;52.034;5.554;2024-01-16T05:02:57;2.17;;;1.10;;
19026;SDS011;9646;52.034;5.554;2024-01-16T05:05:24;2.95;;;1.00;;
19026;SDS011;9646;52.034;5.554;2024-01-16T05:07:51;2.83;;;1.20;;
19026;SDS011;9646;52.034;5.554;2024-01-16T05:10:18;2.72;;;0.82;;
19026;SDS011;9646;52.034;5.554;2024-01-16T05:12:45;2.47;;;1.27;;
19026;SDS011;9646;52.034;5.554;2024-01-16T05:15:12;1.75;;;0.80;;
19026;SDS011;9646;52.034;5.554;2024-01-16T05:17:40;3.22;;;0.90;;
19026;SDS011;9646;52.034;5.554;2024-01-16T05:20:08;1.45;;;0.82;;
19026;SDS011;9646;52.034;5.554;2024-01-16T05:22:35;2.75;;;1.10;;
19026;SDS011;9646;52.034;5.554;2024-01-16T05:25:04;3.63;;;1.20;;
19026;SDS011;9646;52.034;5.554;2024-01-16T05:27:32;3.17;;;1.10;;
19026;SDS011;9646;52.034;5.554;2024-01-16T05:29:59;4.47;;;1.08;;
19026;SDS011;9646;52.034;5.554;2024-01-16T05:32:26;3.20;;;1.20;;
19026;SDS011;9646;52.034;5.554;2024-01-16T05:34:54;2.85;;;1.05;;
19026;SDS011;9646;52.034;5.554;2024-01-16T05:37:22;5.72;;;1.15;;
19026;SDS011;9646;52.034;5.554;2024-01-16T05:39:49;3.55;;;0.90;;
19026;SDS011;9646;52.034;5.554;2024-01-16T05:42:16;3.60;;;1.25;;
19026;SDS011;9646;52.034;5.554;2024-01-16T05:44:43;5.72;;;1.30;;
19026;SDS011;9646;52.034;5.554;2024-01-16T05:47:10;3.67;;;0.98;;
19026;SDS011;9646;52.034;5.554;2024-01-16T05:49:37;3.20;;;1.05;;
19026;SDS011;9646;52.034;5.554;2024-01-16T05:52:08;3.22;;;1.10;;
19026;SDS011;9646;52.034;5.554;2024-01-16T05:54:35;3.58;;;1.13;;
19026;SDS011;9646;52.034;5.554;2024-01-16T05:57:02;2.33;;;1.10;;
19026;SDS011;9646;52.034;5.554;2024-01-16T05:59:29;3.13;;;1.10;;
19026;SDS011;9646;52.034;5.554;2024-01-16T06:01:56;6.38;;;1.65;;
19026;SDS011;9646;52.034;5.554;2024-01-16T06:04:23;4.95;;;1.27;;
19026;SDS011;9646;52.034;5.554;2024-01-16T06:06:50;1.95;;;1.08;;
19026;SDS011;9646;52.034;5.554;2024-01-16T06:09:18;3.45;;;1.33;;
19026;SDS011;9646;52.034;5.554;2024-01-16T06:11:45;3.40;;;1.15;;
19026;SDS011;9646;52.034;5.554;2024-01-16T06:14:13;4.60;;;1.10;;
19026;SDS011;9646;52.034;5.554;2024-01-16T06:16:46;4.47;;;1.23;;
19026;SDS011;9646;52.034;5.554;2024-01-16T06:19:13;5.70;;;1.50;;
19026;SDS011;9646;52.034;5.554;2024-01-16T06:21:41;2.95;;;1.25;;
19026;SDS011;9646;52.034;5.554;2024-01-16T06:24:08;3.50;;;1.42;;
19026;SDS011;9646;52.034;5.554;2024-01-16T06:26:37;4.55;;;1.42;;
19026;SDS011;9646;52.034;5.554;2024-01-16T06:29:05;3.90;;;1.63;;
19026;SDS011;9646;52.034;5.554;2024-01-16T06:31:32;4.35;;;1.80;;
19026;SDS011;9646;52.034;5.554;2024-01-16T06:33:59;5.30;;;1.88;;
19026;SDS011;9646;52.034;5.554;2024-01-16T06:36:26;7.75;;;1.67;;
19026;SDS011;9646;52.034;5.554;2024-01-16T06:38:53;2.75;;;1.40;;
19026;SDS011;9646;52.034;5.554;2024-01-16T06:41:21;5.63;;;2.20;;
19026;SDS011;9646;52.034;5.554;2024-01-16T06:43:49;3.13;;;1.63;;
19026;SDS011;9646;52.034;5.554;2024-01-16T06:46:16;3.47;;;1.52;;
19026;SDS011;9646;52.034;5.554;2024-01-16T06:48:43;4.10;;;1.70;;
19026;SDS011;9646;52.034;5.554;2024-01-16T06:51:10;5.65;;;1.67;;
19026;SDS011;9646;52.034;5.554;2024-01-16T06:53:39;6.82;;;2.38;;
19026;SDS011;9646;52.034;5.554;2024-01-16T06:56:06;3.92;;;2.10;;
19026;SDS011;9646;52.034;5.554;2024-01-16T06:58:32;3.00;;;1.52;;
19026;SDS011;9646;52.034;5.554;2024-01-16T07:01:01;7.05;;;2.22;;
19026;SDS011;9646;52.034;5.554;2024-01-16T07:03:29;3.38;;;1.63;;
19026;SDS011;9646;52.034;5.554;2024-01-16T07:05:56;3.42;;;1.58;;
19026;SDS011;9646;52.034;5.554;2024-01-16T07:08:23;3.97;;;1.50;;
19026;SDS011;9646;52.034;5.554;2024-01-16T07:10:50;4.63;;;2.17;;
19026;SDS011;9646;52.034;5.554;2024-01-16T07:13:17;6.30;;;1.60;;
19026;SDS011;9646;52.034;5.554;2024-01-16T07:15:44;4.97;;;2.42;;
19026;SDS011;9646;52.034;5.554;2024-01-16T07:18:12;4.78;;;1.80;;
19026;SDS011;9646;52.034;5.554;2024-01-16T07:20:39;5.05;;;1.75;;
19026;SDS011;9646;52.034;5.554;2024-01-16T07:23:07;4.05;;;1.98;;
19026;SDS011;9646;52.034;5.554;2024-01-16T07:25:34;5.88;;;2.33;;
19026;SDS011;9646;52.034;5.554;2024-01-16T07:28:01;5.05;;;2.03;;
19026;SDS011;9646;52.034;5.554;2024-01-16T07:30:28;6.70;;;2.33;;
19026;SDS011;9646;52.034;5.554;2024-01-16T07:32:55;2.63;;;1.55;;
19026;SDS011;9646;52.034;5.554;2024-01-16T07:35:23;3.15;;;1.65;;
19026;SDS011;9646;52.034;5.554;2024-01-16T07:37:50;5.80;;;2.20;;
19026;SDS011;9646;52.034;5.554;2024-01-16T07:40:17;7.60;;;2.60;;
19026;SDS011;9646;52.034;5.554;2024-01-16T07:42:45;3.30;;;1.60;;
19026;SDS011;9646;52.034;5.554;2024-01-16T07:45:13;4.18;;;1.60;;
19026;SDS011;9646;52.034;5.554;2024-01-16T07:47:40;6.40;;;2.50;;
19026;SDS011;9646;52.034;5.554;2024-01-16T07:50:08;2.97;;;1.65;;
19026;SDS011;9646;52.034;5.554;2024-01-16T07:52:36;5.90;;;3.13;;
19026;SDS011;9646;52.034;5.554;2024-01-16T07:55:04;8.00;;;3.03;;
19026;SDS011;9646;52.034;5.554;2024-01-16T07:57:31;11.40;;;3.20;;
19026;SDS011;9646;52.034;5.554;2024-01-16T07:59:58;3.83;;;2.53;;
19026;SDS011;9646;52.034;5.554;2024-01-16T08:02:26;6.18;;;3.13;;
19026;SDS011;9646;52.034;5.554;2024-01-16T08:04:53;6.65;;;2.97;;
19026;SDS011;9646;52.034;5.554;2024-01-16T08:07:20;5.07;;;2.67;;
19026;SDS011;9646;52.034;5.554;2024-01-16T08:09:49;4.43;;;2.42;;
19026;SDS011;9646;52.034;5.554;2024-01-16T08:12:16;6.22;;;2.50;;
19026;SDS011;9646;52.034;5.554;2024-01-16T08:14:43;8.00;;;3.50;;
19026;SDS011;9646;52.034;5.554;2024-01-16T08:17:10;6.82;;;3.05;;
19026;SDS011;9646;52.034;5.554;2024-01-16T08:19:37;6.25;;;2.63;;
19026;SDS011;9646;52.034;5.554;2024-01-16T08:22:04;7.00;;;3.00;;
19026;SDS011;9646;52.034;5.554;2024-01-16T08:24:31;6.88;;;2.95;;
19026;SDS011;9646;52.034;5.554;2024-01-16T08:27:00;5.68;;;2.58;;
19026;SDS011;9646;52.034;5.554;2024-01-16T08:29:27;5.25;;;2.15;;
19026;SDS011;9646;52.034;5.554;2024-01-16T08:31:55;9.02;;;2.80;;
19026;SDS011;9646;52.034;5.554;2024-01-16T08:34:22;6.22;;;2.60;;
19026;SDS011;9646;52.034;5.554;2024-01-16T08:36:49;5.78;;;2.05;;
19026;SDS011;9646;52.034;5.554;2024-01-16T08:39:16;8.52;;;2.13;;
19026;SDS011;9646;52.034;5.554;2024-01-16T08:41:43;8.05;;;2.83;;
19026;SDS011;9646;52.034;5.554;2024-01-16T08:44:12;9.02;;;2.95;;
19026;SDS011;9646;52.034;5.554;2024-01-16T08:46:40;6.38;;;2.70;;
19026;SDS011;9646;52.034;5.554;2024-01-16T08:49:07;7.28;;;2.92;;
19026;SDS011;9646;52.034;5.554;2024-01-16T08:51:34;6.65;;;3.03;;
19026;SDS011;9646;52.034;5.554;2024-01-16T08:54:01;5.82;;;2.90;;
19026;SDS011;9646;52.034;5.554;2024-01-16T08:56:28;4.20;;;2.80;;
19026;SDS011;9646;52.034;5.554;2024-01-16T08:58:55;7.85;;;3.40;;
19026;SDS011;9646;52.034;5.554;2024-01-16T09:01:24;7.07;;;2.63;;
19026;SDS011;9646;52.034;5.554;2024-01-16T09:03:51;4.97;;;2.38;;
19026;SDS011;9646;52.034;5.554;2024-01-16T09:06:18;9.88;;;2.28;;
19026;SDS011;9646;52.034;5.554;2024-01-16T09:08:45;7.97;;;3.17;;
19026;SDS011;9646;52.034;5.554;2024-01-16T09:11:12;7.57;;;3.25;;
19026;SDS011;9646;52.034;5.554;2024-01-16T09:13:39;7.00;;;2.88;;
19026;SDS011;9646;52.034;5.554;2024-01-16T09:16:06;4.50;;;2.65;;
19026;SDS011;9646;52.034;5.554;2024-01-16T09:18:35;6.40;;;3.40;;
19026;SDS011;9646;52.034;5.554;2024-01-16T09:21:02;8.95;;;3.50;;
19026;SDS011;9646;52.034;5.554;2024-01-16T09:23:29;8.10;;;3.00;;
19026;SDS011;9646;52.034;5.554;2024-01-16T09:25:56;10.50;;;3.22;;
19026;SDS011;9646;52.034;5.554;2024-01-16T09:28:23;5.95;;;2.67;;
19026;SDS011;9646;52.034;5.554;2024-01-16T09:30:53;10.43;;;3.63;;
19026;SDS011;9646;52.034;5.554;2024-01-16T09:33:21;9.82;;;3.35;;
19026;SDS011;9646;52.034;5.554;2024-01-16T09:35:49;6.43;;;2.55;;
19026;SDS011;9646;52.034;5.554;2024-01-16T09:38:16;6.65;;;3.42;;
19026;SDS011;9646;52.034;5.554;2024-01-16T09:40:43;7.93;;;3.42;;
19026;SDS011;9646;52.034;5.554;2024-01-16T09:43:11;10.38;;;3.60;;
19026;SDS011;9646;52.034;5.554;2024-01-16T09:45:39;8.88;;;3.08;;
19026;SDS011;9646;52.034;5.554;2024-01-16T09:48:07;5.28;;;2.53;;
19026;SDS011;9646;52.034;5.554;2024-01-16T09:50:34;5.15;;;2.08;;
19026;SDS011;9646;52.034;5.554;2024-01-16T09:53:03;10.63;;;3.67;;
19026;SDS011;9646;52.034;5.554;2024-01-16T09:55:30;5.60;;;2.88;;
19026;SDS011;9646;52.034;5.554;2024-01-16T09:57:57;10.57;;;3.90;;
19026;SDS011;9646;52.034;5.554;2024-01-16T10:00:24;9.75;;;3.42;;
19026;SDS011;9646;52.034;5.554;2024-01-16T10:02:52;9.48;;;3.78;;
19026;SDS011;9646;52.034;5.554;2024-01-16T10:05:23;5.63;;;2.83;;
19026;SDS011;9646;52.034;5.554;2024-01-16T10:07:50;6.40;;;2.67;;
19026;SDS011;9646;52.034;5.554;2024-01-16T10:10:19;10.98;;;3.40;;
19026;SDS011;9646;52.034;5.554;2024-01-16T10:12:47;6.60;;;2.47;;
19026;SDS011;9646;52.034;5.554;2024-01-16T10:15:16;10.95;;;3.28;;
19026;SDS011;9646;52.034;5.554;2024-01-16T10:17:46;7.50;;;2.45;;
19026;SDS011;9646;52.034;5.554;2024-01-16T10:20:13;6.65;;;3.33;;
19026;SDS011;9646;52.034;5.554;2024-01-16T10:22:51;9.30;;;3.38;;
19026;SDS011;9646;52.034;5.554;2024-01-16T10:25:20;6.78;;;3.33;;
19026;SDS011;9646;52.034;5.554;2024-01-16T10:27:48;6.50;;;2.72;;
19026;SDS011;9646;52.034;5.554;2024-01-16T10:30:16;11.63;;;3.70;;
19026;SDS011;9646;52.034;5.554;2024-01-16T10:32:48;5.20;;;2.38;;
19026;SDS011;9646;52.034;5.554;2024-01-16T10:35:15;6.45;;;3.03;;
19026;SDS011;9646;52.034;5.554;2024-01-16T10:37:43;10.35;;;3.50;;
19026;SDS011;9646;52.034;5.554;2024-01-16T10:40:12;5.75;;;2.47;;
19026;SDS011;9646;52.034;5.554;2024-01-16T10:42:42;7.53;;;2.50;;
19026;SDS011;9646;52.034;5.554;2024-01-16T10:45:16;8.07;;;3.10;;
19026;SDS011;9646;52.034;5.554;2024-01-16T10:47:43;7.68;;;3.80;;
19026;SDS011;9646;52.034;5.554;2024-01-16T10:50:11;8.50;;;4.05;;
19026;SDS011;9646;52.034;5.554;2024-01-16T10:52:39;10.68;;;2.88;;
19026;SDS011;9646;52.034;5.554;2024-01-16T10:55:09;10.52;;;3.55;;
19026;SDS011;9646;52.034;5.554;2024-01-16T10:57:37;6.40;;;2.47;;
19026;SDS011;9646;52.034;5.554;2024-01-16T11:00:06;7.78;;;2.95;;
19026;SDS011;9646;52.034;5.554;2024-01-16T11:02:38;6.63;;;3.38;;
19026;SDS011;9646;52.034;5.554;2024-01-16T11:05:08;7.72;;;3.05;;
19026;SDS011;9646;52.034;5.554;2024-01-16T11:07:36;6.82;;;3.10;;
19026;SDS011;9646;52.034;5.554;2024-01-16T11:10:04;6.65;;;3.42;;
19026;SDS011;9646;52.034;5.554;2024-01-16T11:12:33;7.13;;;2.92;;
19026;SDS011;9646;52.034;5.554;2024-01-16T11:15:01;4.82;;;2.75;;
19026;SDS011;9646;52.034;5.554;2024-01-16T11:17:34;8.48;;;3.50;;
19026;SDS011;9646;52.034;5.554;2024-01-16T11:20:01;7.85;;;3.08;;
19026;SDS011;9646;52.034;5.554;2024-01-16T11:22:31;6.70;;;3.00;;
19026;SDS011;9646;52.034;5.554;2024-01-16T11:25:08;6.13;;;2.92;;
19026;SDS011;9646;52.034;5.554;2024-01-16T11:27:35;11.13;;;3.10;;
19026;SDS011;9646;52.034;5.554;2024-01-16T11:30:03;6.80;;;3.10;;
19026;SDS011;9646;52.034;5.554;2024-01-16T11:32:34;7.90;;;2.85;;
19026;SDS011;9646;52.034;5.554;2024-01-16T11:35:01;5.22;;;2.47;;
19026;SDS011;9646;52.034;5.554;2024-01-16T11:37:29;5.30;;;2.78;;
19026;SDS011;9646;52.034;5.554;2024-01-16T11:42:44;7.32;;;2.92;;
19026;SDS011;9646;52.034;5.554;2024-01-16T11:45:19;6.00;;;2.55;;
19026;SDS011;9646;52.034;5.554;2024-01-16T11:48:10;5.50;;;2.17;;
19026;SDS011;9646;52.034;5.554;2024-01-16T11:50:37;8.60;;;2.90;;
19026;SDS011;9646;52.034;5.554;2024-01-16T11:53:04;8.13;;;3.00;;
19026;SDS011;9646;52.034;5.554;2024-01-16T11:55:32;5.78;;;3.00;;
19026;SDS011;9646;52.034;5.554;2024-01-16T12:00:51;6.47;;;2.90;;
19026;SDS011;9646;52.034;5.554;2024-01-16T12:03:21;4.50;;;2.55;;
19026;SDS011;9646;52.034;5.554;2024-01-16T12:05:54;8.30;;;3.85;;
19026;SDS011;9646;52.034;5.554;2024-01-16T12:08:20;9.90;;;3.00;;
19026;SDS011;9646;52.034;5.554;2024-01-16T12:10:47;4.75;;;2.80;;
19026;SDS011;9646;52.034;5.554;2024-01-16T12:13:14;2.95;;;2.05;;
19026;SDS011;9646;52.034;5.554;2024-01-16T12:15:42;6.18;;;2.88;;
19026;SDS011;9646;52.034;5.554;2024-01-16T12:18:09;7.35;;;2.67;;
19026;SDS011;9646;52.034;5.554;2024-01-16T12:20:38;7.45;;;2.95;;
19026;SDS011;9646;52.034;5.554;2024-01-16T12:23:05;7.68;;;3.20;;
19026;SDS011;9646;52.034;5.554;2024-01-16T12:25:34;4.25;;;2.58;;
19026;SDS011;9646;52.034;5.554;2024-01-16T12:28:02;5.70;;;2.53;;
19026;SDS011;9646;52.034;5.554;2024-01-16T12:30:30;7.70;;;3.17;;
19026;SDS011;9646;52.034;5.554;2024-01-16T12:33:04;6.40;;;3.22;;
19026;SDS011;9646;52.034;5.554;2024-01-16T12:35:32;5.90;;;3.20;;
19026;SDS011;9646;52.034;5.554;2024-01-16T12:38:01;8.30;;;3.58;;
19026;SDS011;9646;52.034;5.554;2024-01-16T12:40:30;7.43;;;2.58;;
19026;SDS011;9646;52.034;5.554;2024-01-16T12:42:57;5.57;;;3.05;;
19026;SDS011;9646;52.034;5.554;2024-01-16T12:45:24;5.68;;;2.70;;
19026;SDS011;9646;52.034;5.554;2024-01-16T12:47:53;9.60;;;3.15;;
19026;SDS011;9646;52.034;5.554;2024-01-16T12:50:23;7.40;;;3.00;;
19026;SDS011;9646;52.034;5.554;2024-01-16T12:52:59;11.25;;;3.67;;
19026;SDS011;9646;52.034;5.554;2024-01-16T12:55:28;6.32;;;3.17;;
19026;SDS011;9646;52.034;5.554;2024-01-16T13:00:38;8.57;;;3.28;;
19026;SDS011;9646;52.034;5.554;2024-01-16T13:03:05;5.20;;;1.95;;
19026;SDS011;9646;52.034;5.554;2024-01-16T13:05:32;6.13;;;2.95;;
19026;SDS011;9646;52.034;5.554;2024-01-16T13:08:00;5.30;;;2.60;;
19026;SDS011;9646;52.034;5.554;2024-01-16T13:10:29;10.15;;;4.43;;
19026;SDS011;9646;52.034;5.554;2024-01-16T13:15:39;9.05;;;3.20;;
19026;SDS011;9646;52.034;5.554;2024-01-16T13:18:06;9.13;;;2.25;;
19026;SDS011;9646;52.034;5.554;2024-01-16T13:20:33;7.47;;;2.92;;
19026;SDS011;9646;52.034;5.554;2024-01-16T13:23:00;6.55;;;3.08;;
19026;SDS011;9646;52.034;5.554;2024-01-16T13:25:29;7.20;;;2.65;;
19026;SDS011;9646;52.034;5.554;2024-01-16T13:27:56;5.93;;;2.70;;
19026;SDS011;9646;52.034;5.554;2024-01-16T13:30:24;9.98;;;2.78;;
19026;SDS011;9646;52.034;5.554;2024-01-16T13:32:51;3.70;;;2.30;;
19026;SDS011;9646;52.034;5.554;2024-01-16T13:35:18;3.45;;;2.03;;
19026;SDS011;9646;52.034;5.554;2024-01-16T13:37:45;5.63;;;2.38;;
19026;SDS011;9646;52.034;5.554;2024-01-16T13:40:12;4.10;;;2.38;;
19026;SDS011;9646;52.034;5.554;2024-01-16T13:42:44;6.35;;;2.97;;
19026;SDS011;9646;52.034;5.554;2024-01-16T13:45:12;6.00;;;2.30;;
19026;SDS011;9646;52.034;5.554;2024-01-16T13:47:39;6.18;;;2.63;;
19026;SDS011;9646;52.034;5.554;2024-01-16T13:50:06;4.75;;;2.30;;
19026;SDS011;9646;52.034;5.554;2024-01-16T13:52:34;7.22;;;2.92;;
19026;SDS011;9646;52.034;5.554;2024-01-16T13:55:01;6.28;;;2.53;;
19026;SDS011;9646;52.034;5.554;2024-01-16T13:57:30;6.50;;;2.33;;
19026;SDS011;9646;52.034;5.554;2024-01-16T13:59:59;6.10;;;2.40;;
19026;SDS011;9646;52.034;5.554;2024-01-16T14:02:26;6.45;;;2.65;;
19026;SDS011;9646;52.034;5.554;2024-01-16T14:04:53;9.10;;;2.67;;
19026;SDS011;9646;52.034;5.554;2024-01-16T14:07:20;6.88;;;3.00;;
19026;SDS011;9646;52.034;5.554;2024-01-16T14:09:47;9.68;;;3.55;;
19026;SDS011;9646;52.034;5.554;2024-01-16T14:12:14;7.55;;;3.38;;
19026;SDS011;9646;52.034;5.554;2024-01-16T14:14:44;5.70;;;2.50;;
19026;SDS011;9646;52.034;5.554;2024-01-16T14:17:14;9.00;;;3.40;;
19026;SDS011;9646;52.034;5.554;2024-01-16T14:19:41;6.03;;;2.50;;
19026;SDS011;9646;52.034;5.554;2024-01-16T14:22:08;5.43;;;2.35;;
19026;SDS011;9646;52.034;5.554;2024-01-16T14:24:35;6.80;;;3.60;;
19026;SDS011;9646;52.034;5.554;2024-01-16T14:27:03;5.88;;;2.65;;
19026;SDS011;9646;52.034;5.554;2024-01-16T14:29:30;5.75;;;2.42;;
19026;SDS011;9646;52.034;5.554;2024-01-16T14:31:59;6.85;;;2.47;;
19026;SDS011;9646;52.034;5.554;2024-01-16T14:34:27;5.07;;;2.78;;
19026;SDS011;9646;52.034;5.554;2024-01-16T14:36:54;7.40;;;2.50;;
19026;SDS011;9646;52.034;5.554;2024-01-16T14:39:21;4.22;;;2.35;;
19026;SDS011;9646;52.034;5.554;2024-01-16T14:41:50;6.00;;;3.08;;
19026;SDS011;9646;52.034;5.554;2024-01-16T14:44:17;6.85;;;2.30;;
19026;SDS011;9646;52.034;5.554;2024-01-16T14:46:44;5.85;;;2.08;;
19026;SDS011;9646;52.034;5.554;2024-01-16T14:49:11;6.28;;;2.83;;
19026;SDS011;9646;52.034;5.554;2024-01-16T14:51:40;4.32;;;2.70;;
19026;SDS011;9646;52.034;5.554;2024-01-16T14:54:07;4.13;;;2.65;;
19026;SDS011;9646;52.034;5.554;2024-01-16T14:56:34;5.70;;;3.15;;
19026;SDS011;9646;52.034;5.554;2024-01-16T14:59:01;7.85;;;3.42;;
19026;SDS011;9646;52.034;5.554;2024-01-16T15:01:28;7.63;;;3.30;;
19026;SDS011;9646;52.034;5.554;2024-01-16T15:03:56;8.02;;;2.97;;
19026;SDS011;9646;52.034;5.554;2024-01-16T15:06:24;7.55;;;2.90;;
19026;SDS011;9646;52.034;5.554;2024-01-16T15:08:53;5.25;;;2.80;;
19026;SDS011;9646;52.034;5.554;2024-01-16T15:11:20;9.77;;;3.60;;
19026;SDS011;9646;52.034;5.554;2024-01-16T15:13:47;5.15;;;3.13;;